createdAt,value
2019-01-26T00:00:49.387Z,41.70
2019-01-26T00:03:20.240Z,44.97
2019-01-26T00:05:51.135Z,40.27
2019-01-26T00:08:22.162Z,42.80
2019-01-26T00:10:53.011Z,43.27
2019-01-26T00:13:24.016Z,43.90
2019-01-26T00:15:54.883Z,43.47
2019-01-26T00:18:25.660Z,43.43
2019-01-26T00:20:56.602Z,40.43
2019-01-26T00:23:27.621Z,43.50
2019-01-26T00:25:58.473Z,40.20
2019-01-26T00:28:29.374Z,42.10
2019-01-26T00:31:00.250Z,43.63
2019-01-26T00:33:31.032Z,45.10
2019-01-26T00:36:01.724Z,42.10
2019-01-26T00:38:32.508Z,42.97
2019-01-26T00:41:03.298Z,41.13
2019-01-26T00:43:34.176Z,43.20
2019-01-26T00:46:05.166Z,43.77
2019-01-26T00:48:36.002Z,44.60
2019-01-26T00:51:06.835Z,41.70
2019-01-26T00:53:37.408Z,44.50
2019-01-26T00:56:08.333Z,41.90
2019-01-26T00:58:39.267Z,43.57
2019-01-26T01:01:10.402Z,40.00
2019-01-26T01:03:41.339Z,40.53
2019-01-26T01:06:12.293Z,41.07
2019-01-26T01:08:43.049Z,41.83
2019-01-26T01:11:13.977Z,39.60
2019-01-26T01:13:44.761Z,41.13
2019-01-26T01:16:15.384Z,40.83
2019-01-26T01:18:46.188Z,39.70
2019-01-26T01:21:17.194Z,39.80
2019-01-26T01:23:48.017Z,42.43
2019-01-26T01:26:18.789Z,38.80
2019-01-26T01:28:49.807Z,41.40
2019-01-26T01:31:20.397Z,40.90
2019-01-26T01:33:50.952Z,40.40
2019-01-26T01:36:21.614Z,42.20
2019-01-26T01:38:52.533Z,42.53
2019-01-26T01:41:23.177Z,41.60
2019-01-26T01:43:54.212Z,39.43
2019-01-26T01:46:25.116Z,41.50
2019-01-26T01:48:55.916Z,39.60
2019-01-26T01:51:26.816Z,36.77
2019-01-26T01:53:57.535Z,38.50
2019-01-26T01:56:28.488Z,41.40
2019-01-26T01:58:59.157Z,39.60
2019-01-26T02:01:29.908Z,38.73
2019-01-26T02:04:00.995Z,40.20
2019-01-26T02:06:31.699Z,42.00
2019-01-26T02:09:02.703Z,40.20
2019-01-26T02:11:33.374Z,41.23
2019-01-26T02:14:04.446Z,38.63
2019-01-26T02:16:35.135Z,38.90
2019-01-26T02:19:05.731Z,39.87
2019-01-26T02:21:36.503Z,39.50
2019-01-26T02:24:07.111Z,39.33
2019-01-26T02:26:38.137Z,39.23
2019-01-26T02:29:08.879Z,39.50
2019-01-26T02:31:39.642Z,42.43
2019-01-26T02:34:10.475Z,41.20
2019-01-26T02:36:41.151Z,37.97
2019-01-26T02:39:11.939Z,44.07
2019-01-26T02:41:42.727Z,41.90
2019-01-26T02:44:13.360Z,39.83
2019-01-26T02:46:44.141Z,35.00
2019-01-26T02:49:14.889Z,39.23
2019-01-26T02:51:45.800Z,36.40
2019-01-26T02:54:16.800Z,37.13
2019-01-26T02:56:47.693Z,37.50
2019-01-26T02:59:18.335Z,37.23
2019-01-26T03:01:49.421Z,41.93
2019-01-26T03:04:20.196Z,39.90
2019-01-26T03:06:50.792Z,37.50
2019-01-26T03:09:21.464Z,40.20
2019-01-26T03:11:52.028Z,40.00
2019-01-26T03:14:22.786Z,39.40
2019-01-26T03:16:53.768Z,41.10
2019-01-26T03:19:24.989Z,39.43
2019-01-26T03:21:55.715Z,40.90
2019-01-26T03:24:26.572Z,36.80
2019-01-26T03:26:57.282Z,41.67
2019-01-26T03:29:29.784Z,37.80
2019-01-26T03:32:00.516Z,38.13
2019-01-26T03:34:31.610Z,39.63
2019-01-26T03:37:04.186Z,38.87
2019-01-26T03:39:35.063Z,38.97
2019-01-26T03:42:05.772Z,39.47
2019-01-26T03:44:36.502Z,38.03
2019-01-26T03:47:13.643Z,37.77
2019-01-26T03:49:40.235Z,37.50
2019-01-26T03:52:10.909Z,39.00
2019-01-26T03:54:41.982Z,36.63
2019-01-26T03:57:12.579Z,36.20
2019-01-26T03:59:43.265Z,35.63
2019-01-26T04:02:13.939Z,39.20
2019-01-26T04:04:44.601Z,37.23
2019-01-26T04:07:15.470Z,36.43
2019-01-26T04:09:45.995Z,36.97
2019-01-26T04:12:16.967Z,37.93
2019-01-26T04:14:47.676Z,36.33
2019-01-26T04:17:22.029Z,37.90
2019-01-26T04:19:50.745Z,37.20
2019-01-26T04:22:21.603Z,35.13
2019-01-26T04:24:52.633Z,37.10
2019-01-26T04:27:23.418Z,37.07
2019-01-26T04:29:54.152Z,39.00
2019-01-26T04:32:24.678Z,33.67
2019-01-26T04:34:55.515Z,35.60
2019-01-26T04:37:29.421Z,35.20
2019-01-26T04:40:00.297Z,36.07
2019-01-26T04:42:31.066Z,35.67
2019-01-26T04:45:01.886Z,30.97
2019-01-26T04:47:32.563Z,33.17
2019-01-26T04:50:03.649Z,32.93
2019-01-26T04:52:34.452Z,31.40
2019-01-26T04:55:06.744Z,35.80
2019-01-26T04:57:37.346Z,34.20
2019-01-26T05:00:20.095Z,38.20
2019-01-26T05:02:50.718Z,33.83
2019-01-26T05:05:21.766Z,34.67
2019-01-26T05:07:52.705Z,34.57
2019-01-26T05:10:23.463Z,34.50
2019-01-26T05:12:54.089Z,34.40
2019-01-26T05:15:24.753Z,32.83
2019-01-26T05:17:55.399Z,30.93
2019-01-26T05:20:26.436Z,45.43
2019-01-26T05:22:57.126Z,47.70
2019-01-26T05:25:27.806Z,40.60
2019-01-26T05:27:58.461Z,39.87
2019-01-26T05:30:29.174Z,41.03
2019-01-26T05:32:59.860Z,41.10
2019-01-26T05:35:30.991Z,38.60
2019-01-26T05:38:01.863Z,37.60
2019-01-26T05:40:32.665Z,35.57
2019-01-26T05:43:03.253Z,35.73
2019-01-26T05:45:34.350Z,34.37
2019-01-26T05:48:05.218Z,33.93
2019-01-26T05:50:35.863Z,32.03
2019-01-26T05:53:06.551Z,35.17
2019-01-26T05:55:37.118Z,32.63
2019-01-26T05:58:08.193Z,321.80
2019-01-26T06:00:38.993Z,67.07
2019-01-26T06:03:09.801Z,53.77
2019-01-26T06:05:40.493Z,45.30
2019-01-26T06:08:11.251Z,45.97
2019-01-26T06:10:41.921Z,41.40
2019-01-26T06:13:12.807Z,42.30
2019-01-26T06:15:43.596Z,41.13
2019-01-26T06:18:14.388Z,38.33
2019-01-26T06:20:45.519Z,36.43
2019-01-26T06:23:16.618Z,32.97
2019-01-26T06:25:47.424Z,31.13
2019-01-26T06:28:18.304Z,29.23
2019-01-26T06:30:49.067Z,28.10
2019-01-26T06:33:19.872Z,27.80
2019-01-26T06:35:50.640Z,27.23
2019-01-26T06:38:21.322Z,25.50
2019-01-26T06:40:52.303Z,24.67
2019-01-26T06:43:24.358Z,24.23
2019-01-26T06:45:55.413Z,24.97
2019-01-26T06:48:26.170Z,20.33
2019-01-26T06:50:56.869Z,21.87
2019-01-26T06:53:27.554Z,19.57
2019-01-26T06:55:58.316Z,19.30
2019-01-26T06:58:29.282Z,17.57
2019-01-26T07:01:00.422Z,18.40
2019-01-26T07:03:31.142Z,14.60
2019-01-26T07:06:06.528Z,16.57
2019-01-26T07:08:41.969Z,15.87
2019-01-26T07:11:13.466Z,17.90
2019-01-26T07:13:44.174Z,14.93
2019-01-26T07:16:16.764Z,13.23
2019-01-26T07:18:47.589Z,13.30
2019-01-26T07:21:18.438Z,11.80
2019-01-26T07:23:49.077Z,12.40
2019-01-26T07:26:20.023Z,11.70
2019-01-26T07:28:50.978Z,11.70
2019-01-26T07:31:21.398Z,10.90
2019-01-26T07:33:52.219Z,10.83
2019-01-26T07:36:23.250Z,8.50
2019-01-26T07:38:54.191Z,8.43
2019-01-26T07:41:24.861Z,8.23
2019-01-26T07:43:56.425Z,8.30
2019-01-26T07:46:27.273Z,8.60
2019-01-26T07:48:58.288Z,7.87
2019-01-26T07:51:29.158Z,7.03
2019-01-26T07:54:00.030Z,7.20
2019-01-26T07:56:31.067Z,7.37
2019-01-26T07:59:01.811Z,6.67
2019-01-26T08:01:34.887Z,6.00
2019-01-26T08:04:05.836Z,7.03
2019-01-26T08:06:37.761Z,6.17
2019-01-26T08:09:13.520Z,5.90
2019-01-26T08:11:44.720Z,6.77
2019-01-26T08:14:15.920Z,6.43
2019-01-26T08:16:46.665Z,5.30
2019-01-26T08:19:17.762Z,3.70
2019-01-26T08:21:48.450Z,4.57
2019-01-26T08:24:19.145Z,6.00
2019-01-26T08:26:50.012Z,5.00
2019-01-26T08:29:22.577Z,4.73
2019-01-26T08:31:53.415Z,4.20
2019-01-26T08:34:24.123Z,7.33
2019-01-26T08:36:54.897Z,6.30
2019-01-26T08:39:26.067Z,3.80
2019-01-26T08:41:56.984Z,3.70
2019-01-26T08:44:30.061Z,3.40
2019-01-26T08:47:01.418Z,2.67
2019-01-26T08:49:32.521Z,3.40
2019-01-26T08:52:03.485Z,2.83
2019-01-26T08:54:34.287Z,2.80
2019-01-26T08:57:05.156Z,3.17
2019-01-26T08:59:36.043Z,2.43
2019-01-26T09:02:11.128Z,2.63
2019-01-26T09:04:42.115Z,2.70
2019-01-26T09:07:12.753Z,2.63
2019-01-26T09:09:43.542Z,4.03
2019-01-26T09:12:17.198Z,2.73
2019-01-26T09:14:48.172Z,2.17
2019-01-26T09:17:18.752Z,1.90
2019-01-26T09:19:49.592Z,2.43
2019-01-26T09:22:20.850Z,2.90
2019-01-26T09:24:51.396Z,2.40
2019-01-26T09:27:23.720Z,3.97
2019-01-26T09:29:54.975Z,2.47
2019-01-26T09:32:25.788Z,1.70
2019-01-26T09:34:58.390Z,2.27
2019-01-26T09:37:29.288Z,2.40
2019-01-26T09:40:00.200Z,2.30
2019-01-26T09:42:30.964Z,2.63
2019-01-26T09:45:01.746Z,2.70
2019-01-26T09:47:32.361Z,2.80
2019-01-26T09:50:03.502Z,2.50
2019-01-26T09:52:34.539Z,1.90
2019-01-26T09:55:08.115Z,3.03
2019-01-26T09:57:38.795Z,2.17
2019-01-26T10:00:12.333Z,2.00
2019-01-26T10:02:43.141Z,2.90
2019-01-26T10:05:14.281Z,2.23
2019-01-26T10:07:45.024Z,3.00
2019-01-26T10:10:16.906Z,2.77
2019-01-26T10:12:47.805Z,2.03
2019-01-26T10:15:27.472Z,1.83
2019-01-26T10:17:58.376Z,2.63
2019-01-26T10:20:31.538Z,1.47
2019-01-26T10:23:02.451Z,1.63
2019-01-26T10:25:33.292Z,4.07
2019-01-26T10:28:04.539Z,1.90
2019-01-26T10:30:44.993Z,2.03
2019-01-26T10:33:15.694Z,2.40
2019-01-26T10:35:57.314Z,1.93
2019-01-26T10:38:29.647Z,2.60
2019-01-26T10:41:03.407Z,2.33
2019-01-26T10:43:35.659Z,2.80
2019-01-26T10:46:06.523Z,2.57
2019-01-26T10:48:37.556Z,1.87
2019-01-26T10:51:08.246Z,3.20
2019-01-26T10:53:38.856Z,2.57
2019-01-26T10:56:09.737Z,3.00
2019-01-26T10:58:40.828Z,2.60
2019-01-26T11:01:13.150Z,3.53
2019-01-26T11:03:43.997Z,3.40
2019-01-26T11:06:14.989Z,3.03
2019-01-26T11:08:46.111Z,3.20
2019-01-26T11:11:17.255Z,2.73
2019-01-26T11:13:48.158Z,4.00
2019-01-26T11:16:19.138Z,3.43
2019-01-26T11:18:50.279Z,3.47
2019-01-26T11:21:21.276Z,3.10
2019-01-26T11:23:52.356Z,3.10
2019-01-26T11:26:23.160Z,3.80
2019-01-26T11:28:53.951Z,3.10
2019-01-26T11:31:24.949Z,3.77
2019-01-26T11:33:55.917Z,3.33
2019-01-26T11:36:26.763Z,3.43
2019-01-26T11:38:57.433Z,4.10
2019-01-26T11:41:28.349Z,3.13
2019-01-26T11:43:59.457Z,3.70
2019-01-26T11:46:30.301Z,3.27
2019-01-26T11:49:01.094Z,2.97
2019-01-26T11:51:33.347Z,4.40
2019-01-26T11:54:04.164Z,4.03
2019-01-26T11:56:46.635Z,4.20
2019-01-26T11:59:18.793Z,3.67
2019-01-26T12:01:53.793Z,5.60
2019-01-26T12:04:28.803Z,5.70
2019-01-26T12:07:01.301Z,6.47
2019-01-26T12:09:35.199Z,5.27
2019-01-26T12:12:08.990Z,5.70
2019-01-26T12:14:41.401Z,6.70
2019-01-26T12:17:12.372Z,4.80
2019-01-26T12:19:43.265Z,7.30
2019-01-26T12:22:15.601Z,5.17
2019-01-26T12:24:46.357Z,5.80
2019-01-26T12:27:17.350Z,5.23
2019-01-26T12:29:47.921Z,5.60
2019-01-26T12:32:18.466Z,5.60
2019-01-26T12:34:48.987Z,5.00
2019-01-26T12:37:19.843Z,4.87
2019-01-26T12:39:50.545Z,5.20
2019-01-26T12:42:21.315Z,4.73
2019-01-26T12:44:52.281Z,4.10
2019-01-26T12:47:23.346Z,5.10
2019-01-26T12:49:54.150Z,4.50
2019-01-26T12:52:25.072Z,4.50
2019-01-26T12:54:56.349Z,4.90
2019-01-26T12:57:27.382Z,4.80
2019-01-26T12:59:57.986Z,46.40
2019-01-26T13:02:28.748Z,30.20
2019-01-26T13:05:00.736Z,25.10
2019-01-26T13:07:31.373Z,22.57
2019-01-26T13:10:03.140Z,19.23
2019-01-26T13:12:33.988Z,19.37
2019-01-26T13:15:05.650Z,17.60
2019-01-26T13:17:36.548Z,17.10
2019-01-26T13:20:10.137Z,16.97
2019-01-26T13:22:41.272Z,15.17
2019-01-26T13:25:14.394Z,14.50
2019-01-26T13:27:45.195Z,12.70
2019-01-26T13:30:22.188Z,12.33
2019-01-26T13:32:52.934Z,12.60
2019-01-26T13:35:23.568Z,11.70
2019-01-26T13:37:54.611Z,12.17
2019-01-26T13:40:27.760Z,11.10
2019-01-26T13:42:58.683Z,11.20
2019-01-26T13:45:29.428Z,12.83
2019-01-26T13:48:00.489Z,12.80
2019-01-26T13:50:33.336Z,11.00
2019-01-26T13:53:04.543Z,10.63
2019-01-26T13:55:37.260Z,10.40
2019-01-26T13:58:08.223Z,9.33
2019-01-26T14:00:39.027Z,9.97
2019-01-26T14:03:11.213Z,9.73
2019-01-26T14:05:43.158Z,10.50
2019-01-26T14:08:14.010Z,8.83
2019-01-26T14:10:44.831Z,11.13
2019-01-26T14:13:15.499Z,9.33
2019-01-26T14:15:46.110Z,9.00
2019-01-26T14:18:16.899Z,9.27
2019-01-26T14:20:47.673Z,9.00
2019-01-26T14:23:18.461Z,8.90
2019-01-26T14:25:49.895Z,8.33
2019-01-26T14:28:20.932Z,8.47
2019-01-26T14:30:53.743Z,7.50
2019-01-26T14:33:24.478Z,8.40
2019-01-26T14:35:55.487Z,8.10
2019-01-26T14:38:26.358Z,7.87
2019-01-26T14:40:57.134Z,7.70
2019-01-26T14:43:28.031Z,6.83
2019-01-26T14:45:58.925Z,7.40
2019-01-26T14:48:29.722Z,6.97
2019-01-26T14:51:00.489Z,7.07
2019-01-26T14:53:31.184Z,6.97
2019-01-26T14:56:01.995Z,7.30
2019-01-26T14:58:32.976Z,7.67
2019-01-26T15:01:04.078Z,7.40
2019-01-26T15:03:35.185Z,8.30
2019-01-26T15:06:05.991Z,7.40
2019-01-26T15:08:37.072Z,8.13
2019-01-26T15:11:08.043Z,8.57
2019-01-26T15:13:38.760Z,7.57
2019-01-26T15:16:09.806Z,8.03
2019-01-26T15:18:40.937Z,8.87
2019-01-26T15:21:11.835Z,8.03
2019-01-26T15:23:42.666Z,9.30
2019-01-26T15:26:13.658Z,7.40
2019-01-26T15:28:44.542Z,8.57
2019-01-26T15:31:15.331Z,9.30
2019-01-26T15:33:46.242Z,7.40
2019-01-26T15:36:17.080Z,8.90
2019-01-26T15:38:47.950Z,8.40
2019-01-26T15:41:18.743Z,8.80
2019-01-26T15:43:49.426Z,8.57
2019-01-26T15:46:20.282Z,8.90
2019-01-26T15:48:50.914Z,8.53
2019-01-26T15:51:22.835Z,9.80
2019-01-26T15:53:53.478Z,9.00
2019-01-26T15:56:24.499Z,8.80
2019-01-26T15:58:55.575Z,9.43
2019-01-26T16:01:26.486Z,9.13
2019-01-26T16:03:57.620Z,10.30
2019-01-26T16:06:30.125Z,8.90
2019-01-26T16:09:00.836Z,8.50
2019-01-26T16:11:32.063Z,9.17
2019-01-26T16:14:04.696Z,9.50
2019-01-26T16:16:36.948Z,9.03
2019-01-26T16:19:07.719Z,9.73
2019-01-26T16:21:38.679Z,9.20
2019-01-26T16:24:09.600Z,8.17
2019-01-26T16:26:40.382Z,8.73
2019-01-26T16:29:10.974Z,10.17
2019-01-26T16:31:41.750Z,10.23
2019-01-26T16:34:12.525Z,10.30
2019-01-26T16:36:46.094Z,9.47
2019-01-26T16:39:16.876Z,10.47
2019-01-26T16:41:48.816Z,9.83
2019-01-26T16:44:19.729Z,10.20
2019-01-26T16:46:50.396Z,9.77
2019-01-26T16:49:21.113Z,10.53
2019-01-26T16:51:52.071Z,8.50
2019-01-26T16:54:22.930Z,10.67
2019-01-26T16:56:54.934Z,10.27
2019-01-26T16:59:25.766Z,12.50
2019-01-26T17:01:56.515Z,11.00
2019-01-26T17:04:27.147Z,9.87
2019-01-26T17:06:58.242Z,12.30
2019-01-26T17:09:29.376Z,12.03
2019-01-26T17:12:00.222Z,10.23
2019-01-26T17:14:33.662Z,12.27
2019-01-26T17:17:04.390Z,12.10
2019-01-26T17:19:35.158Z,11.53
2019-01-26T17:22:05.854Z,12.67
2019-01-26T17:24:36.632Z,12.97
2019-01-26T17:27:08.826Z,12.97
2019-01-26T17:29:39.389Z,11.80
2019-01-26T17:32:11.680Z,13.50
2019-01-26T17:34:42.380Z,12.33
2019-01-26T17:37:13.604Z,12.23
2019-01-26T17:39:45.846Z,13.10
2019-01-26T17:42:16.910Z,11.97
2019-01-26T17:44:47.747Z,12.83
2019-01-26T17:47:18.596Z,11.27
2019-01-26T17:49:49.625Z,10.10
2019-01-26T17:52:20.454Z,12.03
2019-01-26T17:54:51.018Z,10.20
2019-01-26T17:57:21.681Z,10.90
2019-01-26T17:59:52.375Z,11.83
2019-01-26T18:02:23.298Z,11.00
2019-01-26T18:04:54.141Z,11.43
2019-01-26T18:07:24.826Z,10.70
2019-01-26T18:09:55.319Z,10.67
2019-01-26T18:12:26.163Z,11.07
2019-01-26T18:14:56.782Z,11.40
2019-01-26T18:17:27.585Z,9.43
2019-01-26T18:19:58.338Z,10.80
2019-01-26T18:22:29.464Z,11.03
2019-01-26T18:25:00.764Z,11.30
2019-01-26T18:27:32.373Z,10.70
2019-01-26T18:30:03.192Z,11.13
2019-01-26T18:32:34.135Z,11.47
2019-01-26T18:35:07.535Z,11.10
2019-01-26T18:37:38.705Z,11.80
2019-01-26T18:40:18.418Z,9.40
2019-01-26T18:42:49.982Z,9.87
2019-01-26T18:45:22.482Z,8.70
2019-01-26T18:47:53.202Z,8.73
2019-01-26T18:50:26.528Z,11.03
2019-01-26T18:52:58.345Z,10.00
2019-01-26T18:55:29.083Z,10.37
2019-01-26T18:57:59.954Z,9.13
2019-01-26T19:00:34.443Z,10.20
2019-01-26T19:03:07.849Z,8.53
2019-01-26T19:05:39.904Z,9.47
2019-01-26T19:08:10.807Z,8.47
2019-01-26T19:10:41.663Z,9.40
2019-01-26T19:13:13.165Z,8.63
2019-01-26T19:15:44.349Z,8.00
2019-01-26T19:18:15.109Z,9.17
2019-01-26T19:20:45.781Z,8.47
2019-01-26T19:23:16.516Z,8.40
2019-01-26T19:25:47.227Z,9.80
2019-01-26T19:28:17.992Z,8.17
2019-01-26T19:30:48.784Z,8.90
2019-01-26T19:33:19.659Z,9.67
2019-01-26T19:35:50.551Z,9.30
2019-01-26T19:38:21.661Z,9.77
2019-01-26T19:40:53.115Z,8.50
2019-01-26T19:43:24.308Z,9.40
2019-01-26T19:45:55.439Z,8.87
2019-01-26T19:48:26.235Z,9.10
2019-01-26T19:50:56.953Z,10.20
2019-01-26T19:53:28.030Z,9.37
2019-01-26T19:55:58.827Z,9.43
2019-01-26T19:58:29.775Z,10.40
2019-01-26T20:01:00.831Z,9.13
2019-01-26T20:03:31.600Z,9.60
2019-01-26T20:06:02.620Z,10.43
2019-01-26T20:08:33.541Z,10.33
2019-01-26T20:11:04.469Z,10.43
2019-01-26T20:13:35.720Z,12.97
2019-01-26T20:16:06.626Z,12.13
2019-01-26T20:18:40.557Z,13.80
2019-01-26T20:21:17.494Z,14.07
2019-01-26T20:23:43.678Z,16.07
2019-01-26T20:26:15.999Z,12.57
2019-01-26T20:28:47.265Z,16.70
2019-01-26T20:31:18.338Z,14.40
2019-01-26T20:33:49.185Z,15.60
2019-01-26T20:36:19.940Z,17.30
2019-01-26T20:38:50.756Z,13.90
2019-01-26T20:41:21.995Z,14.47
2019-01-26T20:43:52.845Z,17.07
2019-01-26T20:46:23.742Z,16.00
2019-01-26T20:48:54.812Z,19.47
2019-01-26T20:51:26.016Z,17.20
2019-01-26T20:53:56.769Z,16.27
2019-01-26T20:56:30.306Z,17.33
2019-01-26T20:59:00.309Z,15.33
2019-01-26T21:01:31.185Z,17.13
2019-01-26T21:04:01.959Z,15.20
2019-01-26T21:06:36.138Z,17.67
2019-01-26T21:09:08.361Z,14.50
2019-01-26T21:11:39.394Z,17.60
2019-01-26T21:14:10.217Z,15.33
2019-01-26T21:16:41.103Z,16.57
2019-01-26T21:19:11.920Z,17.63
2019-01-26T21:21:42.868Z,15.33
2019-01-26T21:24:14.017Z,17.70
2019-01-26T21:26:44.639Z,16.33
2019-01-26T21:29:15.432Z,17.73
2019-01-26T21:31:46.256Z,17.10
2019-01-26T21:34:17.133Z,16.93
2019-01-26T21:36:48.090Z,19.57
2019-01-26T21:39:19.279Z,17.07
2019-01-26T21:41:50.178Z,18.00
2019-01-26T21:44:21.090Z,21.80
2019-01-26T21:46:51.955Z,20.10
2019-01-26T21:49:22.748Z,19.50
2019-01-26T21:51:53.628Z,21.47
2019-01-26T21:54:24.720Z,19.43
2019-01-26T21:56:55.562Z,19.73
2019-01-26T21:59:26.576Z,20.87
2019-01-26T22:01:57.167Z,22.13
2019-01-26T22:04:28.188Z,21.43
2019-01-26T22:07:41.351Z,23.40
2019-01-26T22:10:18.319Z,25.67
2019-01-26T22:12:49.047Z,20.90
2019-01-26T22:15:21.054Z,24.37
2019-01-26T22:17:52.080Z,22.70
2019-01-26T22:20:25.688Z,25.40
2019-01-26T22:22:56.846Z,27.00
2019-01-26T22:25:27.534Z,27.20
2019-01-26T22:27:58.413Z,24.57
2019-01-26T22:30:33.900Z,25.63
2019-01-26T22:33:05.113Z,24.03
2019-01-26T22:35:36.000Z,24.87
2019-01-26T22:38:08.506Z,27.80
2019-01-26T22:40:39.347Z,27.10
2019-01-26T22:43:10.224Z,26.70
2019-01-26T22:45:41.168Z,26.13
2019-01-26T22:48:12.132Z,25.23
2019-01-26T22:50:43.901Z,25.60
2019-01-26T22:53:14.702Z,25.40
2019-01-26T22:55:45.709Z,26.07
2019-01-26T22:58:16.223Z,29.23
2019-01-26T23:00:57.237Z,26.47
2019-01-26T23:03:39.951Z,26.10
2019-01-26T23:06:25.845Z,26.93
2019-01-26T23:08:58.532Z,27.50
2019-01-26T23:11:40.756Z,25.47
2019-01-26T23:14:14.229Z,28.47
2019-01-26T23:16:59.518Z,29.20
2019-01-26T23:19:32.773Z,28.37
2019-01-26T23:22:29.167Z,27.43
2019-01-26T23:25:22.435Z,28.93
2019-01-26T23:28:11.241Z,28.60
2019-01-26T23:30:57.590Z,28.10
2019-01-26T23:33:28.687Z,26.17
2019-01-26T23:35:59.722Z,27.17
2019-01-26T23:38:30.533Z,29.97
2019-01-26T23:41:01.804Z,28.87
2019-01-26T23:43:32.463Z,32.03
2019-01-26T23:46:03.208Z,29.93
2019-01-26T23:48:34.030Z,26.93
2019-01-26T23:51:05.052Z,29.17
2019-01-26T23:53:36.249Z,27.77
2019-01-26T23:56:06.989Z,27.70
2019-01-26T23:58:37.953Z,30.77
